sensor_id;sensor_type;location;lat;lon;timestamp;P1;durP1;ratioP1;P2;durP2;ratioP2
22871;SDS011;11603;44.910;8.630;2022-11-13T00:00:54;48.28;;;36.03;;
22871;SDS011;11603;44.910;8.630;2022-11-13T00:03:39;46.72;;;34.45;;
22871;SDS011;11603;44.910;8.630;2022-11-13T00:06:23;51.88;;;35.75;;
22871;SDS011;11603;44.910;8.630;2022-11-13T00:09:08;44.88;;;35.28;;
22871;SDS011;11603;44.910;8.630;2022-11-13T00:11:54;44.58;;;34.78;;
22871;SDS011;11603;44.910;8.630;2022-11-13T00:14:38;47.28;;;35.95;;
22871;SDS011;11603;44.910;8.630;2022-11-13T00:17:22;45.15;;;34.40;;
22871;SDS011;11603;44.910;8.630;2022-11-13T00:20:06;44.55;;;33.60;;
22871;SDS011;11603;44.910;8.630;2022-11-13T00:22:50;43.00;;;33.80;;
22871;SDS011;11603;44.910;8.630;2022-11-13T00:25:34;44.65;;;34.25;;
22871;SDS011;11603;44.910;8.630;2022-11-13T00:28:18;47.30;;;33.85;;
22871;SDS011;11603;44.910;8.630;2022-11-13T00:31:03;45.92;;;34.90;;
22871;SDS011;11603;44.910;8.630;2022-11-13T00:33:48;48.05;;;35.95;;
22871;SDS011;11603;44.910;8.630;2022-11-13T00:36:32;49.45;;;36.40;;
22871;SDS011;11603;44.910;8.630;2022-11-13T00:39:16;52.67;;;39.38;;
22871;SDS011;11603;44.910;8.630;2022-11-13T00:42:00;52.30;;;39.13;;
22871;SDS011;11603;44.910;8.630;2022-11-13T00:44:44;59.47;;;41.53;;
22871;SDS011;11603;44.910;8.630;2022-11-13T00:47:28;61.75;;;40.65;;
22871;SDS011;11603;44.910;8.630;2022-11-13T00:50:12;59.72;;;41.95;;
22871;SDS011;11603;44.910;8.630;2022-11-13T00:52:55;59.85;;;41.10;;
22871;SDS011;11603;44.910;8.630;2022-11-13T00:55:41;60.95;;;41.75;;
22871;SDS011;11603;44.910;8.630;2022-11-13T00:58:26;68.43;;;43.60;;
22871;SDS011;11603;44.910;8.630;2022-11-13T01:01:11;73.40;;;45.75;;
22871;SDS011;11603;44.910;8.630;2022-11-13T01:03:58;75.88;;;44.95;;
22871;SDS011;11603;44.910;8.630;2022-11-13T01:06:43;78.78;;;47.17;;
22871;SDS011;11603;44.910;8.630;2022-11-13T01:09:27;88.47;;;48.53;;
22871;SDS011;11603;44.910;8.630;2022-11-13T01:12:11;90.70;;;50.17;;
22871;SDS011;11603;44.910;8.630;2022-11-13T01:14:55;89.45;;;48.70;;
22871;SDS011;11603;44.910;8.630;2022-11-13T01:17:39;90.97;;;50.20;;
22871;SDS011;11603;44.910;8.630;2022-11-13T01:20:24;89.20;;;49.15;;
22871;SDS011;11603;44.910;8.630;2022-11-13T01:23:08;91.47;;;50.15;;
22871;SDS011;11603;44.910;8.630;2022-11-13T01:25:52;95.38;;;48.30;;
22871;SDS011;11603;44.910;8.630;2022-11-13T01:28:37;75.65;;;44.25;;
22871;SDS011;11603;44.910;8.630;2022-11-13T01:31:24;70.15;;;42.60;;
22871;SDS011;11603;44.910;8.630;2022-11-13T01:34:09;80.32;;;45.40;;
22871;SDS011;11603;44.910;8.630;2022-11-13T01:36:53;85.53;;;45.88;;
22871;SDS011;11603;44.910;8.630;2022-11-13T01:39:38;84.82;;;47.05;;
22871;SDS011;11603;44.910;8.630;2022-11-13T01:42:22;78.25;;;46.65;;
22871;SDS011;11603;44.910;8.630;2022-11-13T01:48:31;86.35;;;48.83;;
22871;SDS011;11603;44.910;8.630;2022-11-13T01:51:24;94.38;;;50.72;;
22871;SDS011;11603;44.910;8.630;2022-11-13T01:54:16;88.03;;;49.10;;
22871;SDS011;11603;44.910;8.630;2022-11-13T01:57:06;92.85;;;51.03;;
22871;SDS011;11603;44.910;8.630;2022-11-13T01:59:55;93.43;;;52.08;;
22871;SDS011;11603;44.910;8.630;2022-11-13T02:02:42;94.75;;;51.83;;
22871;SDS011;11603;44.910;8.630;2022-11-13T02:05:27;93.05;;;50.67;;
22871;SDS011;11603;44.910;8.630;2022-11-13T02:08:11;104.47;;;52.47;;
22871;SDS011;11603;44.910;8.630;2022-11-13T02:10:55;95.20;;;53.00;;
22871;SDS011;11603;44.910;8.630;2022-11-13T02:13:39;89.72;;;52.60;;
22871;SDS011;11603;44.910;8.630;2022-11-13T02:16:24;93.47;;;50.05;;
22871;SDS011;11603;44.910;8.630;2022-11-13T02:19:13;102.57;;;54.53;;
22871;SDS011;11603;44.910;8.630;2022-11-13T02:24:54;96.00;;;54.08;;
22871;SDS011;11603;44.910;8.630;2022-11-13T02:27:45;87.80;;;51.25;;
22871;SDS011;11603;44.910;8.630;2022-11-13T02:30:32;96.97;;;53.08;;
22871;SDS011;11603;44.910;8.630;2022-11-13T02:33:23;98.18;;;52.22;;
22871;SDS011;11603;44.910;8.630;2022-11-13T02:36:11;92.47;;;53.20;;
22871;SDS011;11603;44.910;8.630;2022-11-13T02:38:58;93.65;;;51.90;;
22871;SDS011;11603;44.910;8.630;2022-11-13T02:41:46;96.68;;;54.13;;
22871;SDS011;11603;44.910;8.630;2022-11-13T02:44:30;97.10;;;54.75;;
22871;SDS011;11603;44.910;8.630;2022-11-13T02:47:14;90.20;;;53.55;;
22871;SDS011;11603;44.910;8.630;2022-11-13T02:49:58;93.07;;;53.40;;
22871;SDS011;11603;44.910;8.630;2022-11-13T02:52:42;93.35;;;53.40;;
22871;SDS011;11603;44.910;8.630;2022-11-13T02:55:26;87.57;;;52.75;;
22871;SDS011;11603;44.910;8.630;2022-11-13T02:58:10;87.40;;;51.80;;
22871;SDS011;11603;44.910;8.630;2022-11-13T03:00:54;85.78;;;52.13;;
22871;SDS011;11603;44.910;8.630;2022-11-13T03:03:38;79.53;;;51.17;;
22871;SDS011;11603;44.910;8.630;2022-11-13T03:06:22;78.35;;;49.13;;
22871;SDS011;11603;44.910;8.630;2022-11-13T03:09:06;84.15;;;51.38;;
22871;SDS011;11603;44.910;8.630;2022-11-13T03:11:50;83.68;;;50.65;;
22871;SDS011;11603;44.910;8.630;2022-11-13T03:14:33;80.90;;;48.90;;
22871;SDS011;11603;44.910;8.630;2022-11-13T03:17:18;96.80;;;51.00;;
22871;SDS011;11603;44.910;8.630;2022-11-13T03:20:02;103.03;;;51.03;;
22871;SDS011;11603;44.910;8.630;2022-11-13T03:22:47;102.07;;;52.47;;
22871;SDS011;11603;44.910;8.630;2022-11-13T03:25:32;109.43;;;54.40;;
22871;SDS011;11603;44.910;8.630;2022-11-13T03:28:17;123.32;;;57.17;;
22871;SDS011;11603;44.910;8.630;2022-11-13T03:31:01;117.10;;;54.65;;
22871;SDS011;11603;44.910;8.630;2022-11-13T03:33:45;120.25;;;55.40;;
22871;SDS011;11603;44.910;8.630;2022-11-13T03:36:29;118.82;;;55.28;;
22871;SDS011;11603;44.910;8.630;2022-11-13T03:39:13;116.40;;;55.30;;
22871;SDS011;11603;44.910;8.630;2022-11-13T03:41:58;126.55;;;55.97;;
22871;SDS011;11603;44.910;8.630;2022-11-13T03:44:41;129.45;;;56.33;;
22871;SDS011;11603;44.910;8.630;2022-11-13T03:47:25;127.50;;;55.20;;
22871;SDS011;11603;44.910;8.630;2022-11-13T03:50:09;139.75;;;57.08;;
22871;SDS011;11603;44.910;8.630;2022-11-13T03:52:53;132.98;;;55.17;;
22871;SDS011;11603;44.910;8.630;2022-11-13T03:55:38;125.70;;;54.72;;
22871;SDS011;11603;44.910;8.630;2022-11-13T03:58:22;123.40;;;54.20;;
22871;SDS011;11603;44.910;8.630;2022-11-13T04:01:07;124.47;;;53.70;;
22871;SDS011;11603;44.910;8.630;2022-11-13T04:03:51;113.63;;;52.38;;
22871;SDS011;11603;44.910;8.630;2022-11-13T04:06:34;115.00;;;53.40;;
22871;SDS011;11603;44.910;8.630;2022-11-13T04:09:19;107.88;;;52.53;;
22871;SDS011;11603;44.910;8.630;2022-11-13T04:12:03;105.68;;;50.45;;
22871;SDS011;11603;44.910;8.630;2022-11-13T04:14:48;105.75;;;50.42;;
22871;SDS011;11603;44.910;8.630;2022-11-13T04:17:32;101.38;;;49.97;;
22871;SDS011;11603;44.910;8.630;2022-11-13T04:20:16;99.95;;;50.85;;
22871;SDS011;11603;44.910;8.630;2022-11-13T04:23:00;98.65;;;49.80;;
22871;SDS011;11603;44.910;8.630;2022-11-13T04:25:44;98.38;;;49.30;;
22871;SDS011;11603;44.910;8.630;2022-11-13T04:28:30;90.90;;;48.65;;
22871;SDS011;11603;44.910;8.630;2022-11-13T04:31:14;89.28;;;49.35;;
22871;SDS011;11603;44.910;8.630;2022-11-13T04:33:58;90.53;;;49.55;;
22871;SDS011;11603;44.910;8.630;2022-11-13T04:36:43;99.38;;;49.30;;
22871;SDS011;11603;44.910;8.630;2022-11-13T04:39:27;87.55;;;46.92;;
22871;SDS011;11603;44.910;8.630;2022-11-13T04:42:11;84.68;;;47.45;;
22871;SDS011;11603;44.910;8.630;2022-11-13T04:45:18;85.70;;;48.13;;
22871;SDS011;11603;44.910;8.630;2022-11-13T04:48:04;78.38;;;46.33;;
22871;SDS011;11603;44.910;8.630;2022-11-13T04:50:48;79.93;;;46.42;;
22871;SDS011;11603;44.910;8.630;2022-11-13T04:53:32;70.57;;;44.28;;
22871;SDS011;11603;44.910;8.630;2022-11-13T04:56:17;76.28;;;45.72;;
22871;SDS011;11603;44.910;8.630;2022-11-13T04:59:01;76.97;;;45.92;;
22871;SDS011;11603;44.910;8.630;2022-11-13T05:01:45;75.75;;;45.22;;
22871;SDS011;11603;44.910;8.630;2022-11-13T05:04:29;76.22;;;45.25;;
22871;SDS011;11603;44.910;8.630;2022-11-13T05:07:14;81.82;;;46.83;;
22871;SDS011;11603;44.910;8.630;2022-11-13T05:09:58;77.30;;;45.95;;
22871;SDS011;11603;44.910;8.630;2022-11-13T05:12:42;77.90;;;44.83;;
22871;SDS011;11603;44.910;8.630;2022-11-13T05:15:26;75.57;;;44.25;;
22871;SDS011;11603;44.910;8.630;2022-11-13T05:18:10;75.20;;;44.78;;
22871;SDS011;11603;44.910;8.630;2022-11-13T05:20:54;73.03;;;42.10;;
22871;SDS011;11603;44.910;8.630;2022-11-13T05:23:38;72.70;;;43.80;;
22871;SDS011;11603;44.910;8.630;2022-11-13T05:26:23;71.07;;;41.97;;
22871;SDS011;11603;44.910;8.630;2022-11-13T05:29:09;69.43;;;42.85;;
22871;SDS011;11603;44.910;8.630;2022-11-13T05:31:53;67.50;;;41.10;;
22871;SDS011;11603;44.910;8.630;2022-11-13T05:34:37;73.07;;;42.28;;
22871;SDS011;11603;44.910;8.630;2022-11-13T05:37:21;66.20;;;40.47;;
22871;SDS011;11603;44.910;8.630;2022-11-13T05:40:05;65.90;;;40.25;;
22871;SDS011;11603;44.910;8.630;2022-11-13T05:42:51;64.38;;;39.47;;
22871;SDS011;11603;44.910;8.630;2022-11-13T05:45:36;65.13;;;38.42;;
22871;SDS011;11603;44.910;8.630;2022-11-13T05:48:20;58.42;;;38.75;;
22871;SDS011;11603;44.910;8.630;2022-11-13T05:51:05;59.03;;;36.83;;
22871;SDS011;11603;44.910;8.630;2022-11-13T05:53:55;59.40;;;36.00;;
22871;SDS011;11603;44.910;8.630;2022-11-13T05:56:39;64.32;;;37.22;;
22871;SDS011;11603;44.910;8.630;2022-11-13T05:59:23;60.58;;;36.60;;
22871;SDS011;11603;44.910;8.630;2022-11-13T06:02:08;55.00;;;35.53;;
22871;SDS011;11603;44.910;8.630;2022-11-13T06:04:51;57.30;;;35.95;;
22871;SDS011;11603;44.910;8.630;2022-11-13T06:07:36;55.72;;;34.17;;
22871;SDS011;11603;44.910;8.630;2022-11-13T06:10:21;59.10;;;35.75;;
22871;SDS011;11603;44.910;8.630;2022-11-13T06:13:05;59.10;;;35.17;;
22871;SDS011;11603;44.910;8.630;2022-11-13T06:15:49;68.60;;;35.78;;
22871;SDS011;11603;44.910;8.630;2022-11-13T06:18:33;61.67;;;35.95;;
22871;SDS011;11603;44.910;8.630;2022-11-13T06:21:19;65.05;;;34.72;;
22871;SDS011;11603;44.910;8.630;2022-11-13T06:24:06;58.90;;;35.58;;
22871;SDS011;11603;44.910;8.630;2022-11-13T06:26:53;62.90;;;35.78;;
22871;SDS011;11603;44.910;8.630;2022-11-13T06:29:37;72.22;;;38.60;;
22871;SDS011;11603;44.910;8.630;2022-11-13T06:32:20;78.97;;;40.35;;
22871;SDS011;11603;44.910;8.630;2022-11-13T06:35:04;83.35;;;41.22;;
22871;SDS011;11603;44.910;8.630;2022-11-13T06:37:49;80.88;;;42.15;;
22871;SDS011;11603;44.910;8.630;2022-11-13T06:40:33;95.63;;;45.25;;
22871;SDS011;11603;44.910;8.630;2022-11-13T06:43:17;131.73;;;52.30;;
22871;SDS011;11603;44.910;8.630;2022-11-13T06:46:06;163.70;;;58.78;;
22871;SDS011;11603;44.910;8.630;2022-11-13T06:48:52;175.02;;;59.15;;
22871;SDS011;11603;44.910;8.630;2022-11-13T06:51:36;143.38;;;57.28;;
22871;SDS011;11603;44.910;8.630;2022-11-13T06:54:20;156.23;;;59.60;;
22871;SDS011;11603;44.910;8.630;2022-11-13T06:57:04;158.80;;;56.83;;
22871;SDS011;11603;44.910;8.630;2022-11-13T06:59:48;146.23;;;56.08;;
22871;SDS011;11603;44.910;8.630;2022-11-13T07:02:32;139.77;;;57.63;;
22871;SDS011;11603;44.910;8.630;2022-11-13T07:05:16;129.80;;;54.45;;
22871;SDS011;11603;44.910;8.630;2022-11-13T07:08:00;145.73;;;56.88;;
22871;SDS011;11603;44.910;8.630;2022-11-13T07:10:51;128.45;;;55.10;;
22871;SDS011;11603;44.910;8.630;2022-11-13T07:13:37;125.07;;;55.10;;
22871;SDS011;11603;44.910;8.630;2022-11-13T07:16:21;135.85;;;54.35;;
22871;SDS011;11603;44.910;8.630;2022-11-13T07:19:05;129.00;;;54.05;;
22871;SDS011;11603;44.910;8.630;2022-11-13T07:21:49;124.30;;;55.72;;
22871;SDS011;11603;44.910;8.630;2022-11-13T07:24:33;137.77;;;56.25;;
22871;SDS011;11603;44.910;8.630;2022-11-13T07:27:17;126.55;;;53.20;;
22871;SDS011;11603;44.910;8.630;2022-11-13T07:30:01;122.13;;;51.65;;
22871;SDS011;11603;44.910;8.630;2022-11-13T07:32:46;107.40;;;50.38;;
22871;SDS011;11603;44.910;8.630;2022-11-13T07:35:30;106.30;;;50.58;;
22871;SDS011;11603;44.910;8.630;2022-11-13T07:38:14;93.50;;;45.55;;
22871;SDS011;11603;44.910;8.630;2022-11-13T07:40:58;93.85;;;47.10;;
22871;SDS011;11603;44.910;8.630;2022-11-13T07:43:43;85.65;;;46.83;;
22871;SDS011;11603;44.910;8.630;2022-11-13T07:46:26;88.78;;;47.10;;
22871;SDS011;11603;44.910;8.630;2022-11-13T07:49:11;88.07;;;45.58;;
22871;SDS011;11603;44.910;8.630;2022-11-13T07:51:55;81.40;;;45.08;;
22871;SDS011;11603;44.910;8.630;2022-11-13T07:54:42;77.10;;;44.30;;
22871;SDS011;11603;44.910;8.630;2022-11-13T07:57:26;84.55;;;45.22;;
22871;SDS011;11603;44.910;8.630;2022-11-13T08:00:10;79.95;;;43.42;;
22871;SDS011;11603;44.910;8.630;2022-11-13T08:02:54;71.05;;;41.38;;
22871;SDS011;11603;44.910;8.630;2022-11-13T08:05:39;73.85;;;41.88;;
22871;SDS011;11603;44.910;8.630;2022-11-13T08:08:24;65.55;;;38.58;;
22871;SDS011;11603;44.910;8.630;2022-11-13T08:11:08;60.75;;;37.17;;
22871;SDS011;11603;44.910;8.630;2022-11-13T08:13:52;65.18;;;39.10;;
22871;SDS011;11603;44.910;8.630;2022-11-13T08:16:36;64.38;;;37.53;;
22871;SDS011;11603;44.910;8.630;2022-11-13T08:19:20;62.30;;;37.30;;
22871;SDS011;11603;44.910;8.630;2022-11-13T08:22:04;57.60;;;36.70;;
22871;SDS011;11603;44.910;8.630;2022-11-13T08:24:48;59.30;;;37.65;;
22871;SDS011;11603;44.910;8.630;2022-11-13T08:27:32;54.33;;;36.08;;
22871;SDS011;11603;44.910;8.630;2022-11-13T08:30:16;53.67;;;34.45;;
22871;SDS011;11603;44.910;8.630;2022-11-13T08:33:01;58.72;;;34.70;;
22871;SDS011;11603;44.910;8.630;2022-11-13T08:35:52;53.17;;;34.47;;
22871;SDS011;11603;44.910;8.630;2022-11-13T08:38:40;53.72;;;34.42;;
22871;SDS011;11603;44.910;8.630;2022-11-13T08:41:24;53.97;;;34.25;;
22871;SDS011;11603;44.910;8.630;2022-11-13T08:44:08;53.65;;;34.75;;
22871;SDS011;11603;44.910;8.630;2022-11-13T08:46:55;59.95;;;35.15;;
22871;SDS011;11603;44.910;8.630;2022-11-13T08:49:39;58.20;;;35.35;;
22871;SDS011;11603;44.910;8.630;2022-11-13T08:52:23;55.83;;;34.92;;
22871;SDS011;11603;44.910;8.630;2022-11-13T08:55:08;57.63;;;35.72;;
22871;SDS011;11603;44.910;8.630;2022-11-13T08:57:52;60.83;;;35.63;;
22871;SDS011;11603;44.910;8.630;2022-11-13T09:00:36;58.10;;;35.28;;
22871;SDS011;11603;44.910;8.630;2022-11-13T09:03:21;61.40;;;37.45;;
22871;SDS011;11603;44.910;8.630;2022-11-13T09:06:05;58.00;;;35.42;;
22871;SDS011;11603;44.910;8.630;2022-11-13T09:08:50;62.15;;;36.58;;
22871;SDS011;11603;44.910;8.630;2022-11-13T09:11:34;61.50;;;36.85;;
22871;SDS011;11603;44.910;8.630;2022-11-13T09:14:18;58.80;;;35.55;;
22871;SDS011;11603;44.910;8.630;2022-11-13T09:17:02;62.90;;;36.08;;
22871;SDS011;11603;44.910;8.630;2022-11-13T09:19:46;61.33;;;36.63;;
22871;SDS011;11603;44.910;8.630;2022-11-13T09:22:30;62.90;;;36.08;;
22871;SDS011;11603;44.910;8.630;2022-11-13T09:25:14;61.78;;;36.63;;
22871;SDS011;11603;44.910;8.630;2022-11-13T09:27:59;58.17;;;35.28;;
22871;SDS011;11603;44.910;8.630;2022-11-13T09:30:43;57.75;;;35.58;;
22871;SDS011;11603;44.910;8.630;2022-11-13T09:33:28;56.58;;;34.83;;
22871;SDS011;11603;44.910;8.630;2022-11-13T09:36:13;55.25;;;34.10;;
22871;SDS011;11603;44.910;8.630;2022-11-13T09:38:58;59.35;;;34.90;;
22871;SDS011;11603;44.910;8.630;2022-11-13T09:41:45;64.65;;;35.80;;
22871;SDS011;11603;44.910;8.630;2022-11-13T09:44:42;59.28;;;34.83;;
22871;SDS011;11603;44.910;8.630;2022-11-13T09:47:39;55.97;;;34.97;;
22871;SDS011;11603;44.910;8.630;2022-11-13T09:50:29;57.75;;;35.25;;
22871;SDS011;11603;44.910;8.630;2022-11-13T09:53:14;54.65;;;33.88;;
22871;SDS011;11603;44.910;8.630;2022-11-13T09:59:36;52.85;;;33.33;;
22871;SDS011;11603;44.910;8.630;2022-11-13T10:05:34;53.90;;;34.58;;
22871;SDS011;11603;44.910;8.630;2022-11-13T10:08:28;55.13;;;34.88;;
22871;SDS011;11603;44.910;8.630;2022-11-13T10:14:30;75.55;;;42.42;;
22871;SDS011;11603;44.910;8.630;2022-11-13T10:17:36;85.45;;;45.72;;
22871;SDS011;11603;44.910;8.630;2022-11-13T10:21:32;86.40;;;45.08;;
22871;SDS011;11603;44.910;8.630;2022-11-13T10:23:54;85.45;;;47.00;;
22871;SDS011;11603;44.910;8.630;2022-11-13T10:26:39;81.75;;;46.25;;
22871;SDS011;11603;44.910;8.630;2022-11-13T10:29:23;78.53;;;44.67;;
22871;SDS011;11603;44.910;8.630;2022-11-13T10:41:30;81.72;;;47.70;;
22871;SDS011;11603;44.910;8.630;2022-11-13T10:50:13;96.88;;;54.25;;
22871;SDS011;11603;44.910;8.630;2022-11-13T10:53:13;97.40;;;53.78;;
22871;SDS011;11603;44.910;8.630;2022-11-13T10:55:58;93.45;;;54.53;;
22871;SDS011;11603;44.910;8.630;2022-11-13T10:58:42;100.78;;;55.95;;
22871;SDS011;11603;44.910;8.630;2022-11-13T11:01:27;96.25;;;55.15;;
22871;SDS011;11603;44.910;8.630;2022-11-13T11:07:15;94.18;;;52.25;;
22871;SDS011;11603;44.910;8.630;2022-11-13T11:10:01;93.03;;;52.10;;
22871;SDS011;11603;44.910;8.630;2022-11-13T11:12:55;93.53;;;52.95;;
22871;SDS011;11603;44.910;8.630;2022-11-13T11:15:46;84.93;;;50.40;;
22871;SDS011;11603;44.910;8.630;2022-11-13T11:18:40;87.65;;;50.10;;
22871;SDS011;11603;44.910;8.630;2022-11-13T11:21:30;85.50;;;51.38;;
22871;SDS011;11603;44.910;8.630;2022-11-13T11:24:20;82.18;;;50.40;;
22871;SDS011;11603;44.910;8.630;2022-11-13T11:27:14;80.47;;;48.25;;
22871;SDS011;11603;44.910;8.630;2022-11-13T11:30:15;81.93;;;50.03;;
22871;SDS011;11603;44.910;8.630;2022-11-13T11:39:14;81.22;;;49.30;;
22871;SDS011;11603;44.910;8.630;2022-11-13T11:45:24;72.65;;;45.13;;
22871;SDS011;11603;44.910;8.630;2022-11-13T11:48:14;71.53;;;44.60;;
22871;SDS011;11603;44.910;8.630;2022-11-13T11:56:56;72.57;;;47.55;;
22871;SDS011;11603;44.910;8.630;2022-11-13T12:00:09;71.85;;;46.55;;
22871;SDS011;11603;44.910;8.630;2022-11-13T12:06:07;72.82;;;46.65;;
22871;SDS011;11603;44.910;8.630;2022-11-13T12:12:12;72.80;;;45.22;;
22871;SDS011;11603;44.910;8.630;2022-11-13T12:21:23;70.10;;;44.15;;
22871;SDS011;11603;44.910;8.630;2022-11-13T12:24:17;67.22;;;43.30;;
22871;SDS011;11603;44.910;8.630;2022-11-13T12:35:50;76.55;;;49.13;;
22871;SDS011;11603;44.910;8.630;2022-11-13T12:38:49;76.97;;;47.90;;
22871;SDS011;11603;44.910;8.630;2022-11-13T12:41:43;73.22;;;47.30;;
22871;SDS011;11603;44.910;8.630;2022-11-13T12:47:35;75.22;;;46.58;;
22871;SDS011;11603;44.910;8.630;2022-11-13T12:53:22;66.43;;;43.40;;
22871;SDS011;11603;44.910;8.630;2022-11-13T12:56:42;66.97;;;44.75;;
22871;SDS011;11603;44.910;8.630;2022-11-13T13:05:23;64.07;;;42.90;;
22871;SDS011;11603;44.910;8.630;2022-11-13T13:22:41;69.40;;;43.10;;
22871;SDS011;11603;44.910;8.630;2022-11-13T13:25:27;60.47;;;39.42;;
22871;SDS011;11603;44.910;8.630;2022-11-13T13:28:15;58.15;;;38.92;;
22871;SDS011;11603;44.910;8.630;2022-11-13T13:37:12;55.65;;;38.33;;
22871;SDS011;11603;44.910;8.630;2022-11-13T13:46:14;53.65;;;35.83;;
22871;SDS011;11603;44.910;8.630;2022-11-13T13:49:14;53.33;;;36.85;;
22871;SDS011;11603;44.910;8.630;2022-11-13T13:52:01;48.88;;;33.80;;
22871;SDS011;11603;44.910;8.630;2022-11-13T13:54:48;48.92;;;34.30;;
22871;SDS011;11603;44.910;8.630;2022-11-13T13:57:32;50.17;;;34.65;;
22871;SDS011;11603;44.910;8.630;2022-11-13T14:00:22;47.97;;;33.22;;
22871;SDS011;11603;44.910;8.630;2022-11-13T14:03:20;51.92;;;34.75;;
22871;SDS011;11603;44.910;8.630;2022-11-13T14:08:53;49.85;;;33.85;;
22871;SDS011;11603;44.910;8.630;2022-11-13T14:11:37;57.85;;;38.10;;
22871;SDS011;11603;44.910;8.630;2022-11-13T14:14:21;58.45;;;38.63;;
22871;SDS011;11603;44.910;8.630;2022-11-13T14:17:10;60.17;;;40.00;;
22871;SDS011;11603;44.910;8.630;2022-11-13T14:19:55;58.03;;;38.50;;
22871;SDS011;11603;44.910;8.630;2022-11-13T14:22:43;57.13;;;36.30;;
22871;SDS011;11603;44.910;8.630;2022-11-13T14:25:31;56.90;;;37.08;;
22871;SDS011;11603;44.910;8.630;2022-11-13T14:28:17;56.90;;;37.45;;
22871;SDS011;11603;44.910;8.630;2022-11-13T14:31:04;50.03;;;34.83;;
22871;SDS011;11603;44.910;8.630;2022-11-13T14:33:50;59.67;;;38.15;;
22871;SDS011;11603;44.910;8.630;2022-11-13T14:36:35;53.70;;;35.42;;
22871;SDS011;11603;44.910;8.630;2022-11-13T14:39:27;56.63;;;34.53;;
22871;SDS011;11603;44.910;8.630;2022-11-13T14:42:22;55.10;;;35.85;;
22871;SDS011;11603;44.910;8.630;2022-11-13T14:45:13;55.85;;;36.25;;
22871;SDS011;11603;44.910;8.630;2022-11-13T14:51:04;52.80;;;34.88;;
22871;SDS011;11603;44.910;8.630;2022-11-13T14:54:00;55.47;;;36.70;;
22871;SDS011;11603;44.910;8.630;2022-11-13T14:56:45;61.63;;;37.85;;
22871;SDS011;11603;44.910;8.630;2022-11-13T14:59:29;62.15;;;39.60;;
22871;SDS011;11603;44.910;8.630;2022-11-13T15:02:13;60.83;;;39.28;;
22871;SDS011;11603;44.910;8.630;2022-11-13T15:04:57;59.78;;;39.33;;
22871;SDS011;11603;44.910;8.630;2022-11-13T15:07:41;60.88;;;39.55;;
22871;SDS011;11603;44.910;8.630;2022-11-13T15:10:28;57.40;;;36.95;;
22871;SDS011;11603;44.910;8.630;2022-11-13T15:13:13;58.47;;;38.63;;
22871;SDS011;11603;44.910;8.630;2022-11-13T15:15:58;57.35;;;38.47;;
22871;SDS011;11603;44.910;8.630;2022-11-13T15:18:43;59.22;;;37.97;;
22871;SDS011;11603;44.910;8.630;2022-11-13T15:21:32;57.42;;;37.17;;
22871;SDS011;11603;44.910;8.630;2022-11-13T15:24:16;58.17;;;38.30;;
22871;SDS011;11603;44.910;8.630;2022-11-13T15:27:00;63.13;;;40.83;;
22871;SDS011;11603;44.910;8.630;2022-11-13T15:29:44;63.58;;;39.75;;
22871;SDS011;11603;44.910;8.630;2022-11-13T15:32:28;67.85;;;40.80;;
22871;SDS011;11603;44.910;8.630;2022-11-13T15:35:14;62.70;;;38.97;;
22871;SDS011;11603;44.910;8.630;2022-11-13T15:37:59;61.75;;;40.20;;
22871;SDS011;11603;44.910;8.630;2022-11-13T15:40:43;64.35;;;39.53;;
22871;SDS011;11603;44.910;8.630;2022-11-13T15:43:27;64.00;;;40.28;;
22871;SDS011;11603;44.910;8.630;2022-11-13T15:46:15;57.70;;;38.55;;
22871;SDS011;11603;44.910;8.630;2022-11-13T15:49:01;60.83;;;39.08;;
22871;SDS011;11603;44.910;8.630;2022-11-13T15:51:45;67.03;;;40.15;;
22871;SDS011;11603;44.910;8.630;2022-11-13T15:54:30;68.47;;;40.90;;
22871;SDS011;11603;44.910;8.630;2022-11-13T15:57:18;62.05;;;39.70;;
22871;SDS011;11603;44.910;8.630;2022-11-13T16:00:13;61.90;;;39.38;;
22871;SDS011;11603;44.910;8.630;2022-11-13T16:03:04;63.95;;;40.45;;
22871;SDS011;11603;44.910;8.630;2022-11-13T16:05:54;68.18;;;40.80;;
22871;SDS011;11603;44.910;8.630;2022-11-13T16:08:40;66.30;;;40.92;;
22871;SDS011;11603;44.910;8.630;2022-11-13T16:11:23;65.25;;;42.72;;
22871;SDS011;11603;44.910;8.630;2022-11-13T16:14:07;64.22;;;41.42;;
22871;SDS011;11603;44.910;8.630;2022-11-13T16:16:53;71.82;;;43.97;;
22871;SDS011;11603;44.910;8.630;2022-11-13T16:19:37;61.55;;;40.95;;
22871;SDS011;11603;44.910;8.630;2022-11-13T16:22:23;62.88;;;40.90;;
22871;SDS011;11603;44.910;8.630;2022-11-13T16:25:15;66.35;;;41.45;;
22871;SDS011;11603;44.910;8.630;2022-11-13T16:28:02;61.75;;;40.00;;
22871;SDS011;11603;44.910;8.630;2022-11-13T16:30:47;80.38;;;41.63;;
22871;SDS011;11603;44.910;8.630;2022-11-13T16:33:31;67.65;;;42.20;;
22871;SDS011;11603;44.910;8.630;2022-11-13T16:36:16;70.03;;;42.92;;
22871;SDS011;11603;44.910;8.630;2022-11-13T16:39:02;71.85;;;43.83;;
22871;SDS011;11603;44.910;8.630;2022-11-13T16:41:47;73.55;;;44.58;;
22871;SDS011;11603;44.910;8.630;2022-11-13T16:44:31;70.43;;;43.63;;
22871;SDS011;11603;44.910;8.630;2022-11-13T16:47:24;71.10;;;43.35;;
22871;SDS011;11603;44.910;8.630;2022-11-13T16:50:11;70.57;;;44.15;;
22871;SDS011;11603;44.910;8.630;2022-11-13T16:52:57;70.55;;;43.53;;
22871;SDS011;11603;44.910;8.630;2022-11-13T16:55:41;67.65;;;43.08;;
22871;SDS011;11603;44.910;8.630;2022-11-13T16:58:26;67.85;;;43.10;;
22871;SDS011;11603;44.910;8.630;2022-11-13T17:01:13;71.53;;;43.60;;
22871;SDS011;11603;44.910;8.630;2022-11-13T17:03:59;72.88;;;44.30;;
22871;SDS011;11603;44.910;8.630;2022-11-13T17:06:43;72.05;;;43.88;;
22871;SDS011;11603;44.910;8.630;2022-11-13T17:09:27;70.40;;;45.20;;
22871;SDS011;11603;44.910;8.630;2022-11-13T17:12:11;74.85;;;45.45;;
22871;SDS011;11603;44.910;8.630;2022-11-13T17:14:55;73.63;;;45.40;;
22871;SDS011;11603;44.910;8.630;2022-11-13T17:17:39;70.38;;;43.83;;
22871;SDS011;11603;44.910;8.630;2022-11-13T17:20:23;72.57;;;45.05;;
22871;SDS011;11603;44.910;8.630;2022-11-13T17:23:14;69.97;;;44.10;;
22871;SDS011;11603;44.910;8.630;2022-11-13T17:26:02;74.90;;;44.58;;
22871;SDS011;11603;44.910;8.630;2022-11-13T17:28:47;74.60;;;45.70;;
22871;SDS011;11603;44.910;8.630;2022-11-13T17:31:31;73.13;;;46.33;;
22871;SDS011;11603;44.910;8.630;2022-11-13T17:34:15;69.72;;;45.60;;
22871;SDS011;11603;44.910;8.630;2022-11-13T17:36:59;80.82;;;46.55;;
22871;SDS011;11603;44.910;8.630;2022-11-13T17:39:44;78.53;;;47.42;;
22871;SDS011;11603;44.910;8.630;2022-11-13T17:42:28;81.50;;;48.28;;
22871;SDS011;11603;44.910;8.630;2022-11-13T17:45:12;77.18;;;46.38;;
22871;SDS011;11603;44.910;8.630;2022-11-13T17:47:56;76.90;;;47.38;;
22871;SDS011;11603;44.910;8.630;2022-11-13T17:50:41;79.95;;;46.33;;
22871;SDS011;11603;44.910;8.630;2022-11-13T17:53:25;84.63;;;48.25;;
22871;SDS011;11603;44.910;8.630;2022-11-13T17:56:09;81.53;;;48.90;;
22871;SDS011;11603;44.910;8.630;2022-11-13T17:58:54;83.57;;;47.03;;
22871;SDS011;11603;44.910;8.630;2022-11-13T18:01:38;83.03;;;47.85;;
22871;SDS011;11603;44.910;8.630;2022-11-13T18:04:22;80.18;;;46.75;;
22871;SDS011;11603;44.910;8.630;2022-11-13T18:07:06;81.60;;;47.00;;